Portada
METAR-TAF:

METAR-TAF

Aeropuertos :

Aeropuerto Internacional Roman Tmetuchl

Koror, Babeldaob, Palaos

latitud: 07-22N, longitud: 134-32E, altitud: 54 m

Observación

El informe se hizo hace 1 hora y 8 minutos, a las 23:50 UTC
Viento 7 kt del noreste con ráfagas de 16 kt
Temperatura 30°C
Humedad 75%
Presión 1012 hPa
Visibilidad: 20.9 km
Escasas nubes a una altura de 1000 ft
Nubes dispersas a una altura de 1600 ft
Cielo nuboso a una altura de 12000 ft
Cielo nuboso a una altura de 32000 ft

METAR: PTRO 122350Z 05007G16KT 13SM FEW010 SCT016 BKN120 BKN320 30/25 A2987 RMK HZ ALQDS

Hora: 09:58 (00:58 UTC)

Pronóstico

El informe se hizo hace 1 hora y 12 minutos, a las 23:46 UTC
Pronóstico válido del 13 a las 00 UTC al 13 a las 24 UTC
Viento 9 kt del este-noreste con ráfagas de 16 kt
Visibilidad: 10 km
Nubes dispersas a una altura de 1800 ft
chaparrones en las proximidades,

TAF: PTRO 122346Z 1300/1324 06009G16KT P6SM VCSH SCT018

Observaciones y pronósticos meteorológicos de más de 4000 aeropuertos (mensajes METAR y TAF).

Los puntos amarillos y rojos representan las estaciones disponibles.

Ponga el ratón en el punto deseado para ver el nombre de la estación.

Haga clic para ver las observaciones y los pronósticos meteorológicos.

Para cambiar el mapa : haga clic en los botones verdes con una cruz de color negro para hacer un zoom, en el botón verde con un guión para alejar o en las flechas verdes para mapas adyacentes.


METAR-TAF: